Haines, AK

12:54 AM AKDT on September 18, 2014 (GMT -0800)
Haines | Change Station
CLOSE
Current Station
Airport
Location: Haines,
Elevation: 16 ft
Nearby Weather Stations

Elev 16 ft 59.24 °N, 135.51 °W | Updated 25 minutes ago

Mostly Cloudy
Mostly Cloudy
50 °F
Feels Like 50 °F
N
7
Wind Variable Wind from East

Today
High -- | Low -- °F
--% Chance of Precip.
Yesterday
High -- | Low -- °F
Precip. -- in
6:37 AM 7:12 PM
Waning Crescent, 29% visible
Pressure 29.54 in
Visibility 10.0 miles
Clouds Scattered Clouds 1900 ft
Mostly Cloudy 7000 ft
Mostly Cloudy 8000 ft
Dew Point 48 °F
Humidity 93%
Rainfall 0.00 in
Snow Depth Not available.
UV 0 out of 12
Pollen Not available.
Air Quality Not available.
Flu Activity Not available.
SPECI PAHN 180829Z AUTO 09006KT 10SM SCT019 BKN070 BKN080 10/09 A2954 RMK AO2 T01000089 TSNO

More Conditions Fewer Conditions

Pressure 29.54 in
Visibility 10.0 miles
Clouds Scattered Clouds 1900 ft
Mostly Cloudy 7000 ft
Mostly Cloudy 8000 ft
Dew Point 48 °F
Humidity 93%
Rainfall 0.00 in
Snow Depth Not available.
UV 0 out of 12
Pollen Not available.
Air Quality Not available.
Flu Activity Not available.
SPECI PAHN 180829Z AUTO 09006KT 10SM SCT019 BKN070 BKN080 10/09 A2954 RMK AO2 T01000089 TSNO

More Conditions Fewer Conditions

10-Day Weather Forecast

Almanac

Astronomy

Sep. 18, 2014 Rise Set
Actual Time 6:37 AM AKDT 7:12 PM AKDT
Civil Twilight 5:56 AM AKDT 7:53 PM AKDT
Nautical Twilight 5:06 AM AKDT 8:43 PM AKDT
Astronomical Twilight 4:11 AM AKDT 9:37 PM AKDT
Moon 12:40 AM AKDT 4:59 PM AKDT
Length of Visible Light 13h 56m
Length of Day
12h 35m
Tomorrow will be 5m 14s shorter.
Waning Crescent, 29% of the Moon is Illuminated
Today
Waning Crescent
Sep 24
New
Oct 1
First Quarter
Oct 8
Full
Oct 15
Last Quarter

Today's Extremes

State Highs State Lows

Community

WunderPhotos

Upload Photos

1,754,310 photos uploaded!

Nearby

Snow Depth

Station Depth Elevation
MF Bradley River 5 in 2300 ft
Point Mackenzie 1 in 200 ft
Granite Creek 0 in 1240 ft
Grouse Creek Divide 1 in 700 ft
Mcneil Canyon 1 in 1320 ft

Earthquake Activity

City Distance Mag. Time & Date
No recent earthquake activity has been reported nearby.
Minimum magnitude displayed is 2.5.

Coastal Water Temperatures

Place Temperature
No Stations Reporting

Nearby Weather Stations